Time;durP1;ratioP1;P1;durP2;ratioP2;P2;SDS_P1;SDS_P2;PMS_P1;PMS_P2;Temp;Humidity;BMP_temperature;BMP_pressure;BME280_temperature;BME280_humidity;BME280_pressure;Samples;Min_cycle;Max_cycle;Signal;HPM_P1;HPM_P2
2021/03/10 00:01:49;;;;;;;35.00;19.67;;;;;;;3.93;100.00;100891.03;5236513;28;20414;-80
2021/03/10 00:04:19;;;;;;;32.70;19.58;;;;;;;3.76;100.00;100888.50;5246792;28;20025;-80
2021/03/10 00:06:50;;;;;;;31.83;19.30;;;;;;;3.72;100.00;100889.38;5226881;28;20105;-80
2021/03/10 00:09:20;;;;;;;34.65;19.95;;;;;;;3.62;100.00;100890.25;5232710;28;20509;-80
2021/03/10 00:11:50;;;;;;;35.75;20.27;;;;;;;3.62;100.00;100890.25;5232019;28;20028;-81
2021/03/10 00:14:21;;;;;;;36.53;20.23;;;;;;;3.70;100.00;100893.72;5214685;28;20084;-80
2021/03/10 00:16:51;;;;;;;35.28;19.75;;;;;;;3.79;100.00;100890.22;5231930;28;20020;-81
2021/03/10 00:19:21;;;;;;;35.42;20.45;;;;;;;3.87;100.00;100891.06;5213929;28;20036;-80
2021/03/10 00:21:51;;;;;;;35.17;19.42;;;;;;;3.86;100.00;100899.66;5231985;28;20036;-80
2021/03/10 00:24:22;;;;;;;32.88;19.65;;;;;;;3.86;100.00;100908.31;5233168;28;20028;-81
2021/03/10 00:26:52;;;;;;;36.03;20.10;;;;;;;3.73;100.00;100904.03;5232925;28;20033;-80
2021/03/10 00:29:22;;;;;;;33.55;19.35;;;;;;;3.78;100.00;100912.63;5213627;28;20047;-80
2021/03/10 00:31:52;;;;;;;34.20;19.63;;;;;;;3.82;100.00;100919.50;5214009;28;20037;-80
2021/03/10 00:34:23;;;;;;;36.30;20.38;;;;;;;3.71;100.00;100928.16;5231886;28;20444;-80
2021/03/10 00:36:53;;;;;;;36.75;19.95;;;;;;;3.62;100.00;100923.84;5229747;28;20091;-80
2021/03/10 00:39:23;;;;;;;35.70;19.83;;;;;;;3.62;100.00;100921.28;5231737;28;20067;-80
2021/03/10 00:41:54;;;;;;;34.40;20.02;;;;;;;3.64;100.00;100927.28;5213759;28;20020;-81
2021/03/10 00:44:24;;;;;;;35.00;20.20;;;;;;;3.79;100.00;100923.81;5213944;28;20502;-80
2021/03/10 00:46:55;;;;;;;34.00;18.98;;;;;;;3.83;100.00;100921.25;5231494;28;20036;-80
2021/03/10 00:49:25;;;;;;;29.33;19.00;;;;;;;3.88;100.00;100928.94;5232468;28;20025;-80
2021/03/10 00:51:55;;;;;;;34.50;19.67;;;;;;;3.88;100.00;100929.84;5213538;28;20556;-80
2021/03/10 00:54:26;;;;;;;34.33;19.52;;;;;;;3.81;100.00;100935.03;5231700;28;20029;-81
2021/03/10 00:56:56;;;;;;;37.30;19.90;;;;;;;3.82;100.00;100935.00;5213902;28;20024;-80
2021/03/10 00:59:27;;;;;;;36.17;20.65;;;;;;;3.75;100.00;100922.13;5213631;28;20013;-82
2021/03/10 01:01:57;;;;;;;34.53;20.40;;;;;;;3.85;100.00;100927.25;5232139;28;20021;-80
2021/03/10 01:04:27;;;;;;;33.38;20.15;;;;;;;3.81;100.00;100930.69;5231101;28;20029;-80
2021/03/10 01:06:57;;;;;;;35.67;20.63;;;;;;;3.84;100.00;100928.13;5214086;28;20024;-80
2021/03/10 01:09:28;;;;;;;35.45;20.08;;;;;;;3.71;100.00;100935.91;5213493;28;20494;-80
2021/03/10 01:11:58;;;;;;;37.78;20.80;;;;;;;3.81;100.00;100932.44;5212054;28;20035;-80
2021/03/10 01:14:28;;;;;;;35.72;20.83;;;;;;;3.84;100.00;100930.72;5238293;28;20385;-81
2021/03/10 01:16:59;;;;;;;39.05;19.10;;;;;;;3.88;100.00;100931.53;5230997;28;20112;-80
2021/03/10 01:19:29;;;;;;;33.88;19.80;;;;;;;3.85;100.00;100931.56;5231043;28;20024;-80
2021/03/10 01:21:59;;;;;;;32.75;20.35;;;;;;;4.09;100.00;100929.75;5248536;28;20043;-80
2021/03/10 01:24:30;;;;;;;33.97;19.30;;;;;;;4.15;100.00;100921.94;5249064;28;20020;-80
2021/03/10 01:27:00;;;;;;;33.92;19.92;;;;;;;4.35;100.00;100925.34;5249383;28;20040;-81
2021/03/10 01:29:30;;;;;;;33.28;18.88;;;;;;;3.96;100.00;100925.47;5230036;28;20017;-80
2021/03/10 01:32:01;;;;;;;34.63;19.95;;;;;;;3.93;100.00;100930.66;5248729;28;20428;-80
2021/03/10 01:34:31;;;;;;;32.78;19.58;;;;;;;3.88;100.00;100919.50;5230669;28;20020;-80
2021/03/10 01:37:02;;;;;;;37.90;20.33;;;;;;;3.88;100.00;100929.84;5242737;28;20032;-80
2021/03/10 01:39:34;;;;;;;37.05;20.15;;;;;;;3.68;100.00;100926.44;5209571;28;20013;-80
2021/03/10 01:42:05;;;;;;;39.67;21.10;;;;;;;3.61;100.00;100919.56;5227374;28;20082;-80
2021/03/10 01:44:35;;;;;;;37.22;21.55;;;;;;;3.49;100.00;100930.75;5227934;28;20633;-80
2021/03/10 01:47:08;;;;;;;37.47;21.58;;;;;;;3.57;100.00;100921.28;5227841;28;20032;-80
2021/03/10 01:49:40;;;;;;;35.88;21.52;;;;;;;3.60;100.00;100927.31;5210452;28;20029;-81
2021/03/10 01:52:11;;;;;;;36.35;21.73;;;;;;;3.61;100.00;100923.88;5201743;28;20025;-80
2021/03/10 01:54:41;;;;;;;39.22;22.25;;;;;;;3.71;100.00;100918.69;5215174;28;20028;-80
2021/03/10 01:57:11;;;;;;;38.80;21.10;;;;;;;3.59;100.00;100916.13;5226850;28;20066;-81
2021/03/10 01:59:42;;;;;;;35.50;21.50;;;;;;;3.66;100.00;100916.97;5227567;28;20021;-81
2021/03/10 02:02:12;;;;;;;37.05;21.40;;;;;;;3.78;100.00;100922.94;5226843;28;20024;-80
2021/03/10 02:04:43;;;;;;;36.75;21.23;;;;;;;3.70;100.00;100914.38;5227692;28;20017;-80
2021/03/10 02:07:37;;;;;;;35.30;19.98;;;;;;;3.86;100.00;100910.88;5208935;28;20131;-80
2021/03/10 02:10:31;;;;;;;32.47;19.55;;;;;;;3.86;100.00;100918.63;5227822;28;20025;-80
2021/03/10 02:13:30;;;;;;;37.90;21.30;;;;;;;3.93;100.00;100914.31;5210194;28;20057;-81
2021/03/10 02:16:17;;;;;;;35.30;20.00;;;;;;;3.92;100.00;100910.00;5230209;28;20055;-80
2021/03/10 02:18:58;;;;;;;36.13;19.98;;;;;;;3.84;100.00;100912.63;5243907;28;20024;-80
2021/03/10 02:21:40;;;;;;;34.65;21.00;;;;;;;3.70;100.00;100906.63;5229539;28;20020;-80
2021/03/10 02:24:20;;;;;;;36.65;21.63;;;;;;;3.58;100.00;100907.50;5205410;28;20025;-80
2021/03/10 02:27:09;;;;;;;38.50;21.65;;;;;;;3.61;100.00;100911.81;5188671;28;20037;-80
2021/03/10 02:29:39;;;;;;;39.67;22.98;;;;;;;3.55;100.00;100912.69;5188022;28;20084;-80
2021/03/10 02:32:11;;;;;;;38.13;22.45;;;;;;;3.50;100.00;100907.53;5215438;28;20028;-80
2021/03/10 02:34:42;;;;;;;40.95;23.33;;;;;;;3.49;100.00;100923.00;5205609;28;20032;-80
2021/03/10 02:37:12;;;;;;;37.70;21.63;;;;;;;3.44;100.00;100910.13;5218064;28;20020;-80
2021/03/10 02:39:43;;;;;;;36.85;21.27;;;;;;;3.43;100.00;100910.13;5225345;28;20606;-80
2021/03/10 02:42:13;;;;;;;38.33;22.33;;;;;;;3.53;100.00;100902.34;5212425;28;20028;-80
2021/03/10 02:44:45;;;;;;;38.05;21.92;;;;;;;3.43;100.00;100898.09;5217606;28;20093;-80
2021/03/10 02:47:16;;;;;;;36.50;22.13;;;;;;;3.41;100.00;100911.84;5214772;28;20021;-81
2021/03/10 02:49:47;;;;;;;37.80;22.05;;;;;;;3.39;100.00;100905.81;5204191;28;20032;-81
2021/03/10 02:52:18;;;;;;;38.63;22.63;;;;;;;3.36;100.00;100927.34;5207793;28;20027;-80
2021/03/10 02:54:51;;;;;;;41.67;23.08;;;;;;;3.37;100.00;100918.72;5225758;28;20032;-80
2021/03/10 02:57:21;;;;;;;39.47;22.20;;;;;;;3.34;100.00;100918.75;5204642;28;20399;-80
2021/03/10 02:59:52;;;;;;;40.38;23.05;;;;;;;3.42;100.00;100926.47;5216718;28;20027;-80
2021/03/10 03:02:22;;;;;;;43.55;23.55;;;;;;;3.33;100.00;100923.94;5226075;28;20032;-80
2021/03/10 03:04:53;;;;;;;46.13;24.67;;;;;;;3.37;100.00;100912.72;5225854;28;20036;-80
2021/03/10 03:07:24;;;;;;;40.97;23.27;;;;;;;3.38;100.00;100915.28;5226548;28;20742;-80
2021/03/10 03:09:54;;;;;;;41.30;23.52;;;;;;;3.40;100.00;100923.88;5226329;28;20033;-80
2021/03/10 03:12:25;;;;;;;42.90;24.05;;;;;;;3.31;100.00;100928.22;5208095;28;20028;-80
2021/03/10 03:14:57;;;;;;;46.33;23.90;;;;;;;3.31;100.00;100917.88;5225612;28;20368;-81
2021/03/10 03:17:30;;;;;;;44.15;24.70;;;;;;;3.39;100.00;100934.25;5208033;28;20025;-81
2021/03/10 03:20:04;;;;;;;41.75;23.88;;;;;;;3.33;100.00;100934.25;5207964;28;20017;-80
2021/03/10 03:22:42;;;;;;;42.00;24.70;;;;;;;3.34;100.00;100928.22;5207561;28;20120;-80
2021/03/10 03:25:17;;;;;;;44.72;25.20;;;;;;;3.45;100.00;100931.63;5205306;28;20036;-81
2021/03/10 03:27:53;;;;;;;;;;;;;;;3.38;100.00;100935.94;5214430;28;20568;-80
2021/03/10 03:30:24;;;;;;;42.40;24.20;;;;;;;3.42;100.00;100939.41;5223769;28;19908;-80
2021/03/10 03:32:55;;;;;;;42.63;24.02;;;;;;;3.46;100.00;100946.28;5223893;28;20036;-80
2021/03/10 03:35:26;;;;;;;41.75;24.42;;;;;;;3.44;100.00;100940.25;5209647;28;20017;-80
2021/03/10 03:37:57;;;;;;;45.85;24.92;;;;;;;3.44;100.00;100946.28;5209083;28;20169;-81
2021/03/10 03:40:27;;;;;;;42.33;25.00;;;;;;;3.50;100.00;100953.19;5207328;28;20107;-81
2021/03/10 03:42:58;;;;;;;46.28;24.80;;;;;;;3.42;100.00;100949.72;5207506;28;20044;-80
2021/03/10 03:45:28;;;;;;;41.40;24.30;;;;;;;3.40;100.00;100943.72;5225456;28;20076;-80
2021/03/10 03:47:58;;;;;;;41.65;23.30;;;;;;;3.44;100.00;100942.84;5226042;28;20557;-80
2021/03/10 03:50:30;;;;;;;41.22;23.05;;;;;;;3.43;100.00;100938.53;5207891;28;20082;-81
2021/03/10 03:53:00;;;;;;;39.40;22.13;;;;;;;3.50;100.00;100935.94;5219693;28;20104;-81
2021/03/10 03:55:31;;;;;;;39.13;22.05;;;;;;;3.53;100.00;100945.44;5210628;28;20116;-80
2021/03/10 03:58:02;;;;;;;38.28;22.13;;;;;;;3.51;100.00;100952.31;5218553;28;20453;-81
2021/03/10 04:00:33;;;;;;;38.88;22.50;;;;;;;3.58;100.00;100954.00;5226444;28;20029;-81
2021/03/10 04:03:03;;;;;;;38.08;21.95;;;;;;;3.65;100.00;100946.25;5223530;28;20111;-81
2021/03/10 04:05:34;;;;;;;40.78;21.75;;;;;;;3.74;100.00;100944.50;5224152;28;20044;-81
2021/03/10 04:08:04;;;;;;;39.30;21.45;;;;;;;3.64;100.00;100929.88;5224066;28;20037;-81
2021/03/10 04:10:36;;;;;;;37.97;22.70;;;;;;;3.59;100.00;100939.38;5224960;28;20390;-80
2021/03/10 04:13:07;;;;;;;38.83;22.13;;;;;;;3.50;100.00;100935.09;5206419;28;20529;-80
2021/03/10 04:15:37;;;;;;;37.95;21.73;;;;;;;3.60;100.00;100932.50;5206490;28;20032;-80
2021/03/10 04:18:08;;;;;;;38.30;21.38;;;;;;;3.71;100.00;100934.19;5224494;28;20017;-81
2021/03/10 04:20:38;;;;;;;40.92;22.92;;;;;;;3.51;100.00;100948.00;5224920;28;20387;-80
2021/03/10 04:23:08;;;;;;;42.60;22.98;;;;;;;3.45;100.00;100934.22;5223044;28;20115;-80
2021/03/10 04:25:38;;;;;;;44.17;23.70;;;;;;;3.49;100.00;100933.34;5223663;28;20074;-80
2021/03/10 04:28:09;;;;;;;37.33;22.13;;;;;;;3.74;100.00;100921.25;5224226;28;20032;-80
2021/03/10 04:30:40;;;;;;;39.15;22.75;;;;;;;3.75;100.00;100917.81;5203337;28;20025;-81
2021/03/10 04:33:10;;;;;;;40.95;23.67;;;;;;;3.63;100.00;100919.56;5206014;28;20031;-80
2021/03/10 04:35:40;;;;;;;40.17;23.90;;;;;;;3.67;100.00;100923.84;5224227;28;20031;-80
2021/03/10 04:38:11;;;;;;;41.35;24.42;;;;;;;3.51;100.00;100927.31;5224437;28;20024;-80
2021/03/10 04:40:41;;;;;;;40.40;23.60;;;;;;;3.53;100.00;100932.50;5224085;28;20017;-81
2021/03/10 04:43:11;;;;;;;47.25;25.67;;;;;;;3.54;100.00;100936.81;5206094;28;20109;-81
2021/03/10 04:45:41;;;;;;;50.75;26.48;;;;;;;3.51;100.00;100942.00;5224191;28;20036;-80
2021/03/10 04:48:12;;;;;;;44.35;25.35;;;;;;;3.41;100.00;100945.44;5226855;28;20029;-80
2021/03/10 04:50:42;;;;;;;46.78;26.35;;;;;;;3.34;100.00;100952.31;5228383;28;20032;-79
2021/03/10 04:53:12;;;;;;;52.20;28.38;;;;;;;3.36;100.00;100954.91;5210137;28;20431;-80
2021/03/10 04:55:43;;;;;;;54.55;28.45;;;;;;;3.43;100.00;100948.88;5228214;28;20083;-79
2021/03/10 04:58:13;;;;;;;58.00;28.58;;;;;;;3.46;100.00;100949.72;5206250;28;20021;-80
2021/03/10 05:00:43;;;;;;;50.50;28.42;;;;;;;3.52;100.00;100954.88;5225872;28;20028;-80
2021/03/10 05:03:14;;;;;;;54.35;28.30;;;;;;;3.51;100.00;100958.34;5223720;28;20032;-81
2021/03/10 05:05:44;;;;;;;46.97;26.45;;;;;;;3.59;100.00;100957.47;5216051;28;20060;-80
2021/03/10 05:08:15;;;;;;;50.10;28.23;;;;;;;3.60;100.00;100958.34;5222256;28;20028;-81
2021/03/10 05:10:45;;;;;;;51.90;28.42;;;;;;;3.60;100.00;100954.00;5219729;28;20432;-81
2021/03/10 05:13:16;;;;;;;54.58;30.38;;;;;;;3.58;100.00;100959.19;5233547;28;20032;-80
2021/03/10 05:15:46;;;;;;;55.10;29.25;;;;;;;3.66;100.00;100956.59;5224898;28;20600;-80
2021/03/10 05:18:16;;;;;;;49.38;27.55;;;;;;;3.68;100.00;100965.22;5227408;28;20031;-80
2021/03/10 05:20:46;;;;;;;46.75;27.02;;;;;;;3.66;100.00;100959.19;5225246;28;20067;-79
2021/03/10 05:23:17;;;;;;;46.97;27.17;;;;;;;3.64;100.00;100960.88;5248016;28;20024;-80
2021/03/10 05:25:47;;;;;;;50.70;26.73;;;;;;;3.59;100.00;100959.19;5237002;28;20489;-81
2021/03/10 05:28:17;;;;;;;45.03;27.27;;;;;;;3.64;100.00;100968.63;5216004;28;20021;-80
2021/03/10 05:30:47;;;;;;;43.35;25.20;;;;;;;3.64;100.00;100960.88;5227575;28;20021;-81
2021/03/10 05:33:18;;;;;;;45.92;25.88;;;;;;;3.60;100.00;100963.50;5209152;28;20021;-81
2021/03/10 05:35:48;;;;;;;43.88;25.48;;;;;;;3.61;100.00;100976.41;5204566;28;20107;-80
2021/03/10 05:38:18;;;;;;;42.05;24.30;;;;;;;3.59;100.00;100967.78;5207401;28;20490;-81
2021/03/10 05:40:49;;;;;;;40.85;24.00;;;;;;;3.61;100.00;100971.22;5226537;28;20032;-81
2021/03/10 05:43:19;;;;;;;45.42;25.00;;;;;;;3.60;100.00;100974.69;5227089;28;20052;-81
2021/03/10 05:45:50;;;;;;;49.63;27.85;;;;;;;3.55;100.00;100969.53;5226947;28;20028;-80
2021/03/10 05:48:20;;;;;;;50.63;28.50;;;;;;;3.50;100.00;100971.25;5208306;28;20024;-80
2021/03/10 05:50:50;;;;;;;52.53;29.80;;;;;;;3.61;100.00;100973.81;5227019;28;20025;-81
2021/03/10 05:53:22;;;;;;;51.30;29.10;;;;;;;3.69;100.00;100974.69;5209064;28;20154;-80
2021/03/10 05:55:54;;;;;;;46.80;27.35;;;;;;;3.78;100.00;100971.22;5226660;28;20488;-80
2021/03/10 05:58:24;;;;;;;48.63;27.45;;;;;;;3.67;100.00;100973.81;5226205;28;20017;-80
2021/03/10 06:00:54;;;;;;;47.80;27.48;;;;;;;3.63;100.00;100969.50;5226504;28;20528;-80
2021/03/10 06:03:24;;;;;;;49.88;28.45;;;;;;;3.67;100.00;100968.66;5226664;28;20024;-81
2021/03/10 06:06:04;;;;;;;56.28;29.73;;;;;;;3.56;100.00;100973.84;5226915;28;20518;-80
2021/03/10 06:08:34;;;;;;;60.83;30.40;;;;;;;3.53;100.00;100971.25;5226725;28;20037;-80
2021/03/10 06:11:04;;;;;;;53.85;30.05;;;;;;;3.73;100.00;100966.06;5208946;28;20047;-81
2021/03/10 06:13:35;;;;;;;55.30;28.98;;;;;;;3.71;100.00;100975.53;5225940;28;20025;-80
2021/03/10 06:16:05;;;;;;;54.70;29.52;;;;;;;3.67;100.00;100976.41;5226969;28;20020;-79
2021/03/10 06:18:36;;;;;;;50.42;29.40;;;;;;;3.65;100.00;100985.00;5222510;28;20020;-80
2021/03/10 06:21:14;;;;;;;50.55;28.00;;;;;;;3.82;100.00;100978.94;5212934;28;20025;-80
2021/03/10 06:23:52;;;;;;;52.80;27.42;;;;;;;3.62;100.00;100988.44;5226523;28;20565;-80
2021/03/10 06:26:27;;;;;;;52.83;29.10;;;;;;;3.58;100.00;100986.75;5226159;28;20494;-80
2021/03/10 06:28:59;;;;;;;58.00;30.37;;;;;;;3.57;100.00;100994.47;5207955;28;20020;-80
2021/03/10 06:31:34;;;;;;;55.13;29.58;;;;;;;3.72;100.00;100995.34;5204998;28;20021;-80
2021/03/10 06:34:04;;;;;;;58.15;30.42;;;;;;;3.66;100.00;100985.03;5204333;28;20071;-80
2021/03/10 06:36:37;;;;;;;54.88;30.05;;;;;;;3.99;100.00;100990.09;5207527;28;20045;-80
2021/03/10 06:39:13;;;;;;;46.78;27.45;;;;;;;4.20;100.00;100992.66;5225109;28;20021;-80
2021/03/10 06:41:43;;;;;;;51.40;28.50;;;;;;;4.04;100.00;100978.03;5211320;28;20112;-80
2021/03/10 06:44:21;;;;;;;54.13;28.70;;;;;;;4.09;100.00;100978.88;5207393;28;20489;-80
2021/03/10 06:47:03;;;;;;;49.38;27.92;;;;;;;4.20;100.00;100982.31;5225536;28;20096;-80
2021/03/10 06:49:34;;;;;;;47.33;26.83;;;;;;;4.25;100.00;100983.13;5225784;28;20020;-79
2021/03/10 06:52:10;;;;;;;51.17;27.25;;;;;;;4.35;100.00;100983.97;5225828;28;20441;-80
2021/03/10 06:54:52;;;;;;;46.70;26.75;;;;;;;4.37;100.00;100984.81;5225333;28;20610;-80
2021/03/10 06:57:24;;;;;;;47.05;27.05;;;;;;;4.07;100.00;100983.19;5218683;28;20543;-80
2021/03/10 06:59:55;;;;;;;50.20;28.02;;;;;;;4.19;100.00;100983.16;5225389;28;20029;-80
2021/03/10 07:02:28;;;;;;;47.20;27.30;;;;;;;4.14;100.00;100984.88;5207277;28;20079;-80
2021/03/10 07:05:00;;;;;;;50.17;28.58;;;;;;;4.12;100.00;100989.22;5212532;28;20021;-80
2021/03/10 07:07:30;;;;;;;50.65;28.05;;;;;;;4.40;100.00;101000.31;5225180;28;20024;-80
2021/03/10 07:10:01;;;;;;;51.05;29.10;;;;;;;4.50;100.00;100992.50;5226952;28;20021;-81
2021/03/10 07:12:31;;;;;;;51.92;28.73;;;;;;;4.65;100.00;100989.84;5227040;28;20482;-80
2021/03/10 07:15:03;;;;;;;54.50;29.65;;;;;;;4.65;100.00;100995.03;5187138;28;20021;-80
2021/03/10 07:17:34;;;;;;;51.10;28.70;;;;;;;4.85;100.00;101000.09;5204779;28;20112;-81
2021/03/10 07:20:05;;;;;;;50.30;28.50;;;;;;;4.95;100.00;101002.63;5203806;28;20159;-80
2021/03/10 07:22:40;;;;;;;45.88;26.60;;;;;;;5.03;100.00;100987.91;5210894;28;20017;-81
2021/03/10 07:25:15;;;;;;;45.47;26.92;;;;;;;5.35;100.00;100990.25;5213933;28;20033;-81
2021/03/10 07:28:15;;;;;;;49.15;27.45;;;;;;;5.49;100.00;101002.22;5218596;28;20025;-80
2021/03/10 07:30:47;;;;;;;49.83;28.10;;;;;;;5.80;100.00;101006.28;5193356;28;20033;-81
2021/03/10 07:33:19;;;;;;;48.15;27.83;;;;;;;6.20;100.00;101002.41;5207490;28;20592;-81
2021/03/10 07:35:51;;;;;;;48.67;28.33;;;;;;;6.85;100.00;101003.31;5225938;28;20089;-81
2021/03/10 07:38:24;;;;;;;51.67;28.95;;;;;;;6.61;99.90;101013.19;5225655;28;20052;-81
2021/03/10 07:40:59;;;;;;;47.20;27.63;;;;;;;7.45;95.58;101011.06;5207953;28;20025;-81
2021/03/10 07:43:37;;;;;;;50.88;29.33;;;;;;;7.39;94.80;101016.34;5225138;28;20033;-81
2021/03/10 07:46:24;;;;;;;50.92;30.27;;;;;;;6.78;96.12;101017.25;5207482;28;20032;-81
2021/03/10 07:48:56;;;;;;;60.35;33.97;;;;;;;6.56;97.86;101025.38;5225386;28;20029;-82
2021/03/10 07:51:36;;;;;;;70.13;37.28;;;;;;;5.80;100.00;101019.25;5226099;28;20028;-81
2021/03/10 07:54:27;;;;;;;68.55;35.60;;;;;;;5.81;100.00;101011.47;5208294;28;20028;-80
2021/03/10 07:57:10;;;;;;;64.32;35.53;;;;;;;6.02;100.00;101032.00;5225512;28;20406;-80
2021/03/10 07:59:54;;;;;;;70.80;39.15;;;;;;;6.30;100.00;101025.66;5208511;28;20017;-81
2021/03/10 08:02:26;;;;;;;66.47;37.10;;;;;;;6.33;100.00;101027.34;5224735;28;20542;-81
2021/03/10 08:05:02;;;;;;;61.33;33.75;;;;;;;6.16;100.00;101026.69;5225651;28;20040;-81
2021/03/10 08:07:33;;;;;;;65.88;36.30;;;;;;;6.61;100.00;101032.19;5207573;28;20099;-81
2021/03/10 08:10:04;;;;;;;69.93;38.30;;;;;;;6.23;100.00;101034.38;5225843;28;20025;-81
2021/03/10 08:12:36;;;;;;;65.68;36.58;;;;;;;6.27;99.03;101036.06;5225415;28;20021;-81
2021/03/10 08:15:18;;;;;;;64.47;35.63;;;;;;;6.35;100.00;101028.19;5199311;28;20041;-81
2021/03/10 08:17:49;;;;;;;65.30;37.47;;;;;;;6.35;100.00;101033.38;5220972;28;20024;-82
2021/03/10 08:20:30;;;;;;;70.07;39.85;;;;;;;6.31;100.00;101034.28;5207706;28;20150;-82
2021/03/10 08:23:01;;;;;;;82.13;46.08;;;;;;;5.92;100.00;101030.38;5211146;28;20024;-81
2021/03/10 08:25:33;;;;;;;74.93;45.10;;;;;;;6.24;99.78;101030.06;5229038;28;20067;-79
2021/03/10 08:28:15;;;;;;;79.10;45.78;;;;;;;6.35;99.44;101033.38;5213377;28;20029;-80
2021/03/10 08:30:45;;;;;;;79.40;44.80;;;;;;;6.33;97.22;101035.13;5218135;28;20021;-79
2021/03/10 08:33:16;;;;;;;77.82;44.78;;;;;;;6.46;98.94;101028.94;5206507;28;20135;-79
2021/03/10 08:35:48;;;;;;;71.75;42.33;;;;;;;6.52;99.17;101026.25;5208036;28;20022;-79
2021/03/10 08:38:19;;;;;;;69.10;39.85;;;;;;;6.50;98.74;101031.50;5209691;28;20017;-82
2021/03/10 08:40:49;;;;;;;66.72;38.17;;;;;;;6.34;99.31;101032.53;5207292;28;21361;-79
2021/03/10 08:43:20;;;;;;;90.07;49.58;;;;;;;6.49;96.98;101026.31;5227756;28;20036;-79
2021/03/10 08:45:54;;;;;;;84.05;47.67;;;;;;;6.60;97.34;101025.28;5210199;28;20033;-79
2021/03/10 08:48:31;;;;;;;54.42;33.67;;;;;;;6.87;96.84;101024.06;5228196;28;20047;-79
2021/03/10 08:51:03;;;;;;;48.35;29.63;;;;;;;7.29;93.80;101024.31;5228791;28;20509;-79
2021/03/10 08:53:34;;;;;;;46.97;29.38;;;;;;;7.24;94.03;101018.34;5235774;28;20028;-79
2021/03/10 08:56:06;;;;;;;47.28;29.23;;;;;;;7.56;94.56;101019.53;5249905;28;20112;-79
2021/03/10 08:58:37;;;;;;;44.90;27.30;;;;;;;7.54;89.05;101020.47;5231943;28;20023;-79
2021/03/10 09:01:13;;;;;;;46.38;28.23;;;;;;;7.16;90.29;101021.94;5244666;28;20275;-79
2021/03/10 09:03:44;;;;;;;43.60;27.27;;;;;;;7.66;89.36;101021.13;5229055;28;20467;-79
2021/03/10 09:06:15;;;;;;;40.58;27.00;;;;;;;7.42;89.84;101026.72;5229172;28;20036;-79
2021/03/10 09:08:45;;;;;;;41.20;27.05;;;;;;;7.59;87.55;101014.31;5210271;28;20031;-79
2021/03/10 09:11:19;;;;;;;42.67;26.77;;;;;;;7.71;85.28;101011.47;5213036;28;20053;-77
2021/03/10 09:13:49;;;;;;;45.13;27.77;;;;;;;7.62;88.10;101015.97;5211531;28;20471;-79
2021/03/10 09:16:19;;;;;;;45.95;28.83;;;;;;;7.61;89.45;101017.75;5218446;28;20032;-78
2021/03/10 09:19:00;;;;;;;43.90;27.75;;;;;;;7.49;88.75;101017.94;5251272;28;20056;-78
2021/03/10 09:21:41;;;;;;;44.13;28.58;;;;;;;7.33;89.43;101019.06;5251587;28;20064;-78
2021/03/10 09:24:11;;;;;;;44.20;29.20;;;;;;;7.27;90.45;101020.03;5242388;28;20100;-78
2021/03/10 09:26:41;;;;;;;43.95;28.27;;;;;;;7.12;91.60;101020.25;5252223;22;20080;-74
2021/03/10 09:29:11;;;;;;;42.83;26.63;;;;;;;7.04;90.13;101017.78;5241139;28;20098;-75
2021/03/10 09:31:52;;;;;;;43.70;27.33;;;;;;;6.74;91.40;101022.53;5241386;28;20055;-75
2021/03/10 09:34:24;;;;;;;41.78;26.83;;;;;;;6.72;90.32;101024.25;5243138;28;20099;-74
2021/03/10 09:36:54;;;;;;;42.35;27.27;;;;;;;7.11;89.02;101024.59;5240181;28;20032;-75
2021/03/10 09:39:25;;;;;;;41.22;27.30;;;;;;;7.28;90.02;101013.97;5221408;28;20075;-75
2021/03/10 09:41:55;;;;;;;40.13;25.40;;;;;;;7.51;88.01;101015.31;5223428;28;20107;-75
2021/03/10 09:44:25;;;;;;;38.42;25.33;;;;;;;7.43;87.02;101017.16;5222202;28;20052;-75
2021/03/10 09:46:56;;;;;;;37.20;24.45;;;;;;;7.90;85.30;101019.84;5223240;28;20037;-75
2021/03/10 09:49:26;;;;;;;35.97;23.17;;;;;;;8.17;82.36;101014.97;5222408;28;20041;-75
2021/03/10 09:51:56;;;;;;;35.53;23.00;;;;;;;8.23;82.15;101009.69;5218750;28;20025;-75
2021/03/10 09:54:26;;;;;;;34.78;22.98;;;;;;;7.94;83.59;101001.56;5223583;28;20057;-75
2021/03/10 09:56:57;;;;;;;36.80;24.23;;;;;;;7.47;84.93;100993.69;5222472;28;20401;-75
2021/03/10 09:59:33;;;;;;;36.08;23.58;;;;;;;7.38;85.38;101001.63;5222673;28;20028;-75
2021/03/10 10:02:03;;;;;;;33.28;22.45;;;;;;;7.38;83.94;101000.78;5224186;28;20021;-75
2021/03/10 10:04:33;;;;;;;33.78;22.23;;;;;;;7.26;80.87;100992.34;5223181;28;20067;-75
2021/03/10 10:07:06;;;;;;;35.10;23.15;;;;;;;7.05;84.25;100993.50;5223647;28;20121;-75
2021/03/10 10:09:36;;;;;;;34.05;22.63;;;;;;;7.35;83.58;100998.25;5219631;28;20040;-75
2021/03/10 10:12:07;;;;;;;35.85;22.83;;;;;;;7.27;84.71;100991.44;5205702;28;20025;-75
2021/03/10 10:14:37;;;;;;;37.80;23.27;;;;;;;7.84;84.33;100983.53;5221506;28;20029;-75
2021/03/10 10:17:08;;;;;;;34.90;22.33;;;;;;;7.91;82.55;100985.97;5223113;28;20371;-75
2021/03/10 10:19:38;;;;;;;33.85;21.73;;;;;;;7.79;82.76;100974.94;5223029;28;20508;-75
2021/03/10 10:22:09;;;;;;;34.35;22.30;;;;;;;7.80;82.55;100979.25;5223338;28;20033;-75
2021/03/10 10:24:39;;;;;;;33.65;21.35;;;;;;;7.78;83.46;100979.28;5218974;28;20078;-75
2021/03/10 10:27:10;;;;;;;32.55;22.20;;;;;;;7.62;82.56;100987.38;5218708;28;20025;-75
2021/03/10 10:29:40;;;;;;;32.40;21.95;;;;;;;7.79;83.33;100977.53;5219215;28;20086;-75
2021/03/10 10:32:12;;;;;;;30.88;21.40;;;;;;;7.50;82.57;100978.03;5221434;28;20119;-75
2021/03/10 10:34:43;;;;;;;34.63;22.52;;;;;;;7.52;81.86;100968.47;5222696;28;20028;-76
2021/03/10 10:37:13;;;;;;;32.42;20.77;;;;;;;7.47;81.43;100977.22;5220152;28;20130;-75
2021/03/10 10:39:44;;;;;;;30.10;19.88;;;;;;;7.46;82.23;100975.50;5221217;28;20463;-75
2021/03/10 10:42:15;;;;;;;31.48;19.77;;;;;;;7.44;81.63;100972.94;5218898;28;20064;-75
2021/03/10 10:44:45;;;;;;;32.85;19.40;;;;;;;7.31;81.14;100970.56;5204061;28;20013;-75
2021/03/10 10:47:16;;;;;;;32.20;20.42;;;;;;;7.27;82.71;100974.09;5222055;28;20029;-75
2021/03/10 10:49:46;;;;;;;31.77;20.27;;;;;;;7.40;84.22;100960.91;5222109;28;20096;-76
2021/03/10 10:52:16;;;;;;;31.98;20.88;;;;;;;6.92;84.88;100975.53;5224487;28;20030;-75
2021/03/10 10:54:47;;;;;;;32.75;21.27;;;;;;;6.97;85.93;100963.31;5234648;28;20028;-75
2021/03/10 10:57:17;;;;;;;31.88;19.63;;;;;;;6.82;84.57;100971.34;5212912;28;20037;-75
2021/03/10 10:59:48;;;;;;;33.03;20.38;;;;;;;6.84;85.09;100972.16;5223699;28;20012;-75
2021/03/10 11:02:18;;;;;;;33.22;20.42;;;;;;;6.87;85.11;100962.59;5220421;28;20429;-75
2021/03/10 11:04:48;;;;;;;36.20;21.58;;;;;;;6.85;86.60;100960.88;5220966;28;20163;-76
2021/03/10 11:07:19;;;;;;;33.95;20.92;;;;;;;6.91;86.08;100973.81;5221291;28;20090;-75
2021/03/10 11:09:49;;;;;;;35.22;22.23;;;;;;;6.59;87.36;100971.63;5221700;28;20029;-75
2021/03/10 11:12:19;;;;;;;37.45;22.48;;;;;;;6.76;87.68;100968.84;5234157;28;20413;-75
2021/03/10 11:14:50;;;;;;;32.85;20.63;;;;;;;6.67;88.06;100968.94;5203525;28;20102;-75
2021/03/10 11:17:20;;;;;;;35.45;22.70;;;;;;;6.76;85.58;100968.84;5221697;28;20017;-75
2021/03/10 11:19:50;;;;;;;35.97;22.27;;;;;;;7.01;84.96;100963.25;5218970;28;20033;-75
2021/03/10 11:22:20;;;;;;;35.10;22.27;;;;;;;6.94;83.07;100964.22;5219655;28;20416;-75
2021/03/10 11:24:51;;;;;;;33.60;22.02;;;;;;;7.21;84.74;100970.72;5220933;28;20041;-75
2021/03/10 11:27:22;;;;;;;33.67;21.92;;;;;;;7.30;82.27;100968.84;5221317;28;20025;-75
2021/03/10 11:29:52;;;;;;;33.85;22.00;;;;;;;7.24;83.82;100966.34;5221448;28;20033;-75
2021/03/10 11:32:22;;;;;;;33.78;22.13;;;;;;;7.19;82.86;100968.16;5227385;28;20017;-75
2021/03/10 11:34:53;;;;;;;33.58;21.73;;;;;;;7.20;84.32;100967.28;5224315;28;20044;-75